Time;durP1;ratioP1;P1;durP2;ratioP2;P2;SDS_P1;SDS_P2;PMS_P1;PMS_P2;Temp;Humidity;BMP_temperature;BMP_pressure;BME280_temperature;BME280_humidity;BME280_pressure;Samples;Min_cycle;Max_cycle;Signal;HPM_P1;HPM_P2
2021/03/22 00:00:29;;;;;;;;;;;;;;;20.84;48.11;101304.66;2093572;28;1605;-35
2021/03/22 00:01:30;;;;;;;;;;;;;;;20.84;48.12;101301.81;2096266;28;1938;-35
2021/03/22 00:02:31;;;;;;;;;;;;;;;20.83;48.24;101297.31;2096350;28;2262;-35
2021/03/22 00:03:32;;;;;;;;;;;;;;;20.83;48.21;101298.13;2097292;28;1902;-32
2021/03/22 00:04:33;;;;;;;;;;;;;;;20.83;48.08;101300.97;2104743;28;2014;-36
2021/03/22 00:05:34;;;;;;;;;;;;;;;20.84;48.27;101305.50;2095064;28;2230;-33
2021/03/22 00:06:35;;;;;;;;;;;;;;;20.83;48.19;101303.81;2098639;28;2615;-32
2021/03/22 00:07:35;;;;;;;;;;;;;;;20.83;48.32;101298.13;2092903;28;2008;-33
2021/03/22 00:08:36;;;;;;;;;;;;;;;20.84;48.33;101296.13;2098178;28;1615;-31
2021/03/22 00:09:37;;;;;;;;;;;;;;;20.84;48.35;101296.97;2095442;28;3619;-32
2021/03/22 00:10:38;;;;;;;;;;;;;;;20.84;48.41;101294.13;2094752;28;2231;-32
2021/03/22 00:11:38;;;;;;;;;;;;;;;20.84;48.25;101293.28;2093570;28;4018;-40
2021/03/22 00:12:39;;;;;;;;;;;;;;;20.85;48.34;101292.13;2100012;28;2261;-33
2021/03/22 00:13:46;;;;;;;;;;;;;;;20.85;48.25;101286.44;2097934;28;1316;-32
2021/03/22 00:14:47;;;;;;;;;;;;;;;20.85;48.36;101292.13;2099951;28;1927;-35
2021/03/22 00:15:47;;;;;;;;;;;;;;;20.84;48.17;101285.59;2097064;28;1245;-33
2021/03/22 00:16:48;;;;;;;;;;;;;;;20.84;48.34;101285.59;2102971;28;1293;-33
2021/03/22 00:17:49;;;;;;;;;;;;;;;20.85;48.30;101289.28;2099002;28;1267;-34
2021/03/22 00:18:50;;;;;;;;;;;;;;;20.85;48.22;101284.41;2096021;28;1311;-33
2021/03/22 00:19:51;;;;;;;;;;;;;;;20.85;48.36;101290.09;2097404;28;1780;-33
2021/03/22 00:20:52;;;;;;;;;;;;;;;20.85;48.31;101297.81;2094270;28;1145;-31
2021/03/22 00:21:52;;;;;;;;;;;;;;;20.85;48.32;101298.63;2096556;28;1664;-29
2021/03/22 00:22:53;;;;;;;;;;;;;;;20.86;48.19;101291.78;2093060;28;1977;-32
2021/03/22 00:23:54;;;;;;;;;;;;;;;20.86;48.22;101293.78;2095239;28;1965;-35
2021/03/22 00:24:55;;;;;;;;;;;;;;;20.86;48.30;101288.09;2095693;28;1928;-30
2021/03/22 00:25:56;;;;;;;;;;;;;;;20.85;48.23;101292.94;2097083;28;1202;-34
2021/03/22 00:26:57;;;;;;;;;;;;;;;20.85;48.22;101294.97;2093894;28;1837;-34
2021/03/22 00:27:58;;;;;;;;;;;;;;;20.86;48.31;101291.78;2094337;28;1182;-36
2021/03/22 00:28:58;;;;;;;;;;;;;;;20.85;48.15;101295.81;2094199;28;1201;-31
2021/03/22 00:29:59;;;;;;;;;;;;;;;20.86;48.13;101294.59;2097960;28;1800;-30
2021/03/22 00:31:00;;;;;;;;;;;;;;;20.86;48.26;101290.94;2098684;28;1448;-31
2021/03/22 00:32:01;;;;;;;;;;;;;;;20.86;48.24;101288.91;2099284;28;1255;-36
2021/03/22 00:33:02;;;;;;;;;;;;;;;20.85;48.22;101292.94;2099366;28;1809;-35
2021/03/22 00:34:03;;;;;;;;;;;;;;;20.85;48.27;101289.28;2096811;28;1249;-34
2021/03/22 00:35:04;;;;;;;;;;;;;;;20.86;48.17;101288.91;2097576;28;1218;-34
2021/03/22 00:36:04;;;;;;;;;;;;;;;20.86;48.20;101290.94;2097180;28;1792;-32
2021/03/22 00:37:05;;;;;;;;;;;;;;;20.87;48.30;101293.47;2102593;28;1568;-31
2021/03/22 00:38:06;;;;;;;;;;;;;;;20.85;48.39;101289.28;2095601;28;2182;-33
2021/03/22 00:39:07;;;;;;;;;;;;;;;20.83;48.28;101291.63;2098537;28;1147;-35
2021/03/22 00:40:07;;;;;;;;;;;;;;;20.82;48.30;101282.25;2098732;28;1516;-31
2021/03/22 00:41:08;;;;;;;;;;;;;;;20.81;48.22;101286.25;2094397;28;1962;-31
2021/03/22 00:42:09;;;;;;;;;;;;;;;20.81;48.32;101280.56;2099278;28;1599;-32
2021/03/22 00:43:10;;;;;;;;;;;;;;;20.82;48.25;101287.94;2093746;28;1966;-32
2021/03/22 00:44:24;;;;;;;;;;;;;;;20.84;48.31;101285.59;2096068;28;1565;-37
2021/03/22 00:45:25;;;;;;;;;;;;;;;20.84;48.17;101291.28;2097507;28;2184;-31
2021/03/22 00:46:26;;;;;;;;;;;;;;;20.84;48.19;101293.28;2097974;28;1249;-34
2021/03/22 00:47:27;;;;;;;;;;;;;;;20.84;48.30;101285.59;2097879;28;1369;-32
2021/03/22 00:48:28;;;;;;;;;;;;;;;20.84;48.17;101284.75;2093200;28;1957;-36
2021/03/22 00:49:29;;;;;;;;;;;;;;;20.84;48.24;101285.59;2097267;28;1496;-32
2021/03/22 00:50:30;;;;;;;;;;;;;;;20.85;48.26;101281.56;2099651;28;1891;-34
2021/03/22 00:51:31;;;;;;;;;;;;;;;20.85;48.17;101280.75;2098720;28;2168;-33
2021/03/22 00:52:31;;;;;;;;;;;;;;;20.85;48.30;101277.91;2100744;28;1263;-33
2021/03/22 00:53:32;;;;;;;;;;;;;;;20.85;48.23;101273.03;2098572;28;1861;-37
2021/03/22 00:54:33;;;;;;;;;;;;;;;20.86;48.15;101276.72;2100189;28;1552;-31
2021/03/22 00:55:34;;;;;;;;;;;;;;;20.85;48.24;101278.72;2097711;28;1447;-31
2021/03/22 00:56:35;;;;;;;;;;;;;;;20.86;48.32;101282.41;2104048;28;1327;-32
2021/03/22 00:57:35;;;;;;;;;;;;;;;20.85;48.38;101287.25;2102111;28;1321;-35
2021/03/22 00:58:36;;;;;;;;;;;;;;;20.85;48.17;101281.56;2097222;28;1996;-36
2021/03/22 00:59:37;;;;;;;;;;;;;;;20.85;48.34;101278.72;2101106;28;2021;-33
2021/03/22 01:00:38;;;;;;;;;;;;;;;20.86;48.22;101279.56;2099133;28;1507;-35
2021/03/22 01:01:39;;;;;;;;;;;;;;;20.86;48.23;101286.06;2105895;28;1128;-32
2021/03/22 01:02:40;;;;;;;;;;;;;;;20.85;48.40;101275.88;2101157;28;1273;-35
2021/03/22 01:03:42;;;;;;;;;;;;;;;20.86;48.27;101279.56;2097089;28;1960;-33
2021/03/22 01:04:43;;;;;;;;;;;;;;;20.86;48.41;101282.41;2103341;28;1016;-34
2021/03/22 01:05:44;;;;;;;;;;;;;;;20.86;48.34;101279.56;2099614;28;1569;-34
2021/03/22 01:06:44;;;;;;;;;;;;;;;20.87;48.48;101275.56;2101664;28;1167;-35
2021/03/22 01:07:45;;;;;;;;;;;;;;;20.86;48.55;101280.38;2099206;28;1657;-36
2021/03/22 01:08:46;;;;;;;;;;;;;;;20.87;48.52;101275.56;2100636;28;1936;-32
2021/03/22 01:09:47;;;;;;;;;;;;;;;20.86;48.58;101280.38;2099024;28;3766;-35
2021/03/22 01:10:48;;;;;;;;;;;;;;;20.87;48.61;101275.56;2101470;28;3705;-33
2021/03/22 01:11:48;;;;;;;;;;;;;;;20.87;48.63;101276.38;2100548;28;1246;-34
2021/03/22 01:12:49;;;;;;;;;;;;;;;20.88;48.51;101278.06;2102755;28;1216;-32
2021/03/22 01:13:50;;;;;;;;;;;;;;;20.87;48.44;101267.84;2097042;28;2060;-34
2021/03/22 01:14:51;;;;;;;;;;;;;;;20.87;48.65;101270.69;2104445;28;1274;-34
2021/03/22 01:15:52;;;;;;;;;;;;;;;20.87;48.57;101273.53;2098034;28;1610;-33
2021/03/22 01:16:53;;;;;;;;;;;;;;;20.88;48.60;101282.91;2099261;28;1663;-32
2021/03/22 01:17:54;;;;;;;;;;;;;;;20.88;48.71;101274.38;2100933;28;1229;-34
2021/03/22 01:18:55;;;;;;;;;;;;;;;20.88;48.65;101277.22;2095812;28;1857;-33
2021/03/22 01:19:56;;;;;;;;;;;;;;;20.88;48.62;101277.22;2099012;28;1122;-33
2021/03/22 01:20:57;;;;;;;;;;;;;;;20.87;48.64;101282.09;2102657;28;1174;-34
2021/03/22 01:21:57;;;;;;;;;;;;;;;20.87;48.61;101273.53;2099179;28;1289;-32
2021/03/22 01:22:58;;;;;;;;;;;;;;;20.87;48.54;101282.09;2098150;28;1354;-33
2021/03/22 01:23:59;;;;;;;;;;;;;;;20.88;48.63;101280.88;2096079;28;1967;-32
2021/03/22 01:25:00;;;;;;;;;;;;;;;20.87;48.46;101276.38;2102299;28;1308;-35
2021/03/22 01:26:01;;;;;;;;;;;;;;;20.89;48.61;101276.03;2106466;28;1424;-32
2021/03/22 01:27:01;;;;;;;;;;;;;;;20.88;48.48;101280.88;2095918;28;1608;-32
2021/03/22 01:28:02;;;;;;;;;;;;;;;20.88;48.41;101271.53;2100210;28;1291;-32
2021/03/22 01:29:03;;;;;;;;;;;;;;;20.88;48.43;101274.38;2099483;28;1971;-34
2021/03/22 01:30:04;;;;;;;;;;;;;;;20.87;48.47;101275.56;2100647;28;1336;-35
2021/03/22 01:31:04;;;;;;;;;;;;;;;20.88;48.41;101274.38;2099752;28;1925;-36
2021/03/22 01:32:05;;;;;;;;;;;;;;;20.87;48.52;101267.84;2101622;28;1179;-36
2021/03/22 01:33:09;;;;;;;;;;;;;;;20.87;48.59;101272.72;2101388;28;1458;-36
2021/03/22 01:34:10;;;;;;;;;;;;;;;20.87;48.42;101273.53;2097369;28;1918;-32
2021/03/22 01:35:11;;;;;;;;;;;;;;;20.87;48.58;101267.03;2100424;28;1069;-34
2021/03/22 01:36:11;;;;;;;;;;;;;;;20.86;48.52;101260.47;2101772;28;3703;-32
2021/03/22 01:37:12;;;;;;;;;;;;;;;20.86;48.58;101263.31;2096856;28;1579;-35
2021/03/22 01:38:13;;;;;;;;;;;;;;;20.87;48.60;101269.88;2098450;28;1808;-33
2021/03/22 01:39:14;;;;;;;;;;;;;;;20.86;48.51;101256.81;2098402;28;1933;-34
2021/03/22 01:40:14;;;;;;;;;;;;;;;20.86;48.52;101257.63;2101256;28;1447;-32
2021/03/22 01:41:15;;;;;;;;;;;;;;;20.87;48.54;101256.47;2101761;28;1228;-34
2021/03/22 01:42:16;;;;;;;;;;;;;;;20.87;48.53;101265.00;2100922;28;1508;-35
2021/03/22 01:43:17;;;;;;;;;;;;;;;20.87;48.57;101253.63;2101925;28;2068;-35
2021/03/22 01:44:17;;;;;;;;;;;;;;;20.87;48.59;101253.63;2100612;28;1922;-36
2021/03/22 01:45:18;;;;;;;;;;;;;;;20.87;48.67;101262.16;2100105;28;1336;-33
2021/03/22 01:46:19;;;;;;;;;;;;;;;20.86;48.65;101262.50;2099932;28;1195;-31
2021/03/22 01:47:20;;;;;;;;;;;;;;;20.86;48.50;101254.78;2101207;28;1405;-30
2021/03/22 01:48:22;;;;;;;;;;;;;;;20.86;48.48;101251.94;2099997;28;2039;-36
2021/03/22 01:49:23;;;;;;;;;;;;;;;20.89;48.59;101251.25;2100680;28;1528;-32
2021/03/22 01:50:23;;;;;;;;;;;;;;;20.88;48.60;101248.78;2101561;28;1398;-35
2021/03/22 01:51:24;;;;;;;;;;;;;;;20.87;48.50;101258.50;2102513;28;1193;-32
2021/03/22 01:52:25;;;;;;;;;;;;;;;20.85;48.50;101260.84;2102308;28;1647;-32
2021/03/22 01:53:26;;;;;;;;;;;;;;;20.85;48.60;101263.69;2101981;28;1872;-33
2021/03/22 01:54:26;;;;;;;;;;;;;;;20.84;48.57;101257.16;2095031;28;1774;-32
2021/03/22 01:55:27;;;;;;;;;;;;;;;20.85;48.50;101255.97;2101126;28;2085;-32
2021/03/22 01:56:28;;;;;;;;;;;;;;;20.85;48.57;101255.16;2101438;28;2008;-32
2021/03/22 01:57:29;;;;;;;;;;;;;;;20.86;48.51;101251.94;2101979;28;1330;-33
2021/03/22 01:58:30;;;;;;;;;;;;;;;20.86;48.49;101254.78;2095033;28;1940;-36
2021/03/22 01:59:30;;;;;;;;;;;;;;;20.87;48.63;101247.13;2101339;28;1291;-34
2021/03/22 02:00:32;;;;;;;;;;;;;;;20.86;48.47;101251.13;2099527;28;1275;-36
2021/03/22 02:01:33;;;;;;;;;;;;;;;20.88;48.78;101246.75;2093777;28;1248;-30
2021/03/22 02:02:34;;;;;;;;;;;;;;;20.88;48.58;101248.78;2099100;28;1254;-32
2021/03/22 02:03:35;;;;;;;;;;;;;;;20.87;48.46;101245.09;2096945;28;2037;-32
2021/03/22 02:04:36;;;;;;;;;;;;;;;20.87;48.62;101247.94;2100402;28;1938;-31
2021/03/22 02:05:37;;;;;;;;;;;;;;;20.88;48.66;101248.78;2099883;28;1746;-35
2021/03/22 02:06:38;;;;;;;;;;;;;;;20.91;48.83;101250.94;2100247;28;1858;-34
2021/03/22 02:07:38;;;;;;;;;;;;;;;20.89;48.79;101253.28;2097983;28;1895;-33
2021/03/22 02:08:39;;;;;;;;;;;;;;;20.88;48.75;101249.59;2099951;28;1669;-34
2021/03/22 02:09:40;;;;;;;;;;;;;;;20.88;48.61;101243.91;2099326;28;3607;-40
2021/03/22 02:10:41;;;;;;;;;;;;;;;20.88;48.69;101255.28;2101722;28;1454;-35
2021/03/22 02:11:42;;;;;;;;;;;;;;;20.87;48.70;101247.94;2099221;28;4103;-32
2021/03/22 02:12:42;;;;;;;;;;;;;;;20.88;48.69;101249.59;2103495;28;1547;-32
2021/03/22 02:13:45;;;;;;;;;;;;;;;20.89;48.64;101256.13;2102926;28;1872;-35
2021/03/22 02:14:45;;;;;;;;;;;;;;;20.88;48.70;101257.31;2104792;28;1442;-36
2021/03/22 02:15:46;;;;;;;;;;;;;;;20.87;48.64;101256.47;2100674;28;1576;-36
2021/03/22 02:16:47;;;;;;;;;;;;;;;20.87;48.74;101256.47;2100335;28;1522;-37
2021/03/22 02:17:48;;;;;;;;;;;;;;;20.89;48.63;101259.78;2098899;28;1351;-38
2021/03/22 02:18:49;;;;;;;;;;;;;;;20.88;48.64;101263.81;2095700;28;1955;-34
2021/03/22 02:19:50;;;;;;;;;;;;;;;20.88;48.84;101260.97;2099549;28;1479;-35
2021/03/22 02:20:50;;;;;;;;;;;;;;;20.88;48.77;101260.97;2097256;28;1662;-32
2021/03/22 02:21:51;;;;;;;;;;;;;;;20.88;48.75;101260.16;2101711;28;1188;-32
2021/03/22 02:22:52;;;;;;;;;;;;;;;20.88;48.77;101260.97;2098996;28;1297;-36
2021/03/22 02:23:53;;;;;;;;;;;;;;;20.88;48.65;101257.31;2099988;28;2065;-35
2021/03/22 02:24:53;;;;;;;;;;;;;;;20.88;48.70;101248.78;2101156;28;1705;-37
2021/03/22 02:25:54;;;;;;;;;;;;;;;20.88;48.83;101249.59;2095879;28;1995;-31
2021/03/22 02:26:55;;;;;;;;;;;;;;;20.87;48.88;101244.28;2099984;28;1600;-37
2021/03/22 02:27:56;;;;;;;;;;;;;;;20.89;48.72;101250.44;2098488;28;1281;-35
2021/03/22 02:28:57;;;;;;;;;;;;;;;20.88;48.87;101248.78;2097597;28;1897;-33
2021/03/22 02:29:58;;;;;;;;;;;;;;;20.88;48.67;101257.31;2097277;28;1855;-36
2021/03/22 02:30:58;;;;;;;;;;;;;;;20.88;48.68;101254.47;2098761;28;1846;-34
2021/03/22 02:31:59;;;;;;;;;;;;;;;20.88;48.91;101257.31;2102000;28;1304;-35
2021/03/22 02:33:00;;;;;;;;;;;;;;;20.88;48.88;101258.13;2101919;28;1528;-40
2021/03/22 02:34:01;;;;;;;;;;;;;;;20.89;48.77;101259.78;2094336;28;2105;-34
2021/03/22 02:35:02;;;;;;;;;;;;;;;20.88;48.83;101254.47;2101151;28;1253;-32
2021/03/22 02:36:03;;;;;;;;;;;;;;;20.89;48.96;101256.13;2098665;28;1142;-36
2021/03/22 02:37:03;;;;;;;;;;;;;;;20.89;48.86;101256.94;2101153;28;1507;-37
2021/03/22 02:38:04;;;;;;;;;;;;;;;20.89;48.99;101256.94;2101111;28;1543;-36
2021/03/22 02:39:05;;;;;;;;;;;;;;;20.88;48.91;101258.13;2100922;28;2040;-34
2021/03/22 02:40:06;;;;;;;;;;;;;;;20.88;48.89;101260.16;2101028;28;1396;-35
2021/03/22 02:41:06;;;;;;;;;;;;;;;20.89;48.90;101261.81;2100201;28;1783;-38
2021/03/22 02:42:07;;;;;;;;;;;;;;;20.88;49.05;101263.81;2102051;28;1235;-32
2021/03/22 02:43:08;;;;;;;;;;;;;;;20.89;49.02;101265.47;2104512;28;1266;-37
2021/03/22 02:44:09;;;;;;;;;;;;;;;20.88;49.06;101266.66;2096550;28;2189;-36
2021/03/22 02:45:09;;;;;;;;;;;;;;;20.88;49.04;101266.66;2099347;28;2257;-35
2021/03/22 02:46:10;;;;;;;;;;;;;;;20.87;48.92;101262.16;2098076;28;2236;-32
2021/03/22 02:47:11;;;;;;;;;;;;;;;20.87;49.06;101267.84;2103647;28;1210;-33
2021/03/22 02:48:12;;;;;;;;;;;;;;;20.87;48.92;101267.84;2102476;28;1339;-37
2021/03/22 02:49:13;;;;;;;;;;;;;;;20.87;49.07;101262.16;2098519;28;2014;-35
2021/03/22 02:50:14;;;;;;;;;;;;;;;20.87;48.85;101264.19;2103346;28;1098;-35
2021/03/22 02:51:14;;;;;;;;;;;;;;;20.87;49.02;101265.00;2101909;28;1404;-34
2021/03/22 02:52:15;;;;;;;;;;;;;;;20.87;48.96;101256.47;2101570;28;1168;-36
2021/03/22 02:53:16;;;;;;;;;;;;;;;20.86;48.91;101266.16;2103305;28;1300;-37
2021/03/22 02:54:17;;;;;;;;;;;;;;;20.86;49.03;101262.50;2094987;28;1976;-36
2021/03/22 02:55:17;;;;;;;;;;;;;;;20.87;49.06;101261.34;2100004;28;1414;-33
2021/03/22 02:56:18;;;;;;;;;;;;;;;20.86;48.97;101256.81;2097937;28;1523;-37
2021/03/22 02:57:19;;;;;;;;;;;;;;;20.86;48.95;101269.00;2097917;28;1379;-34
2021/03/22 02:58:20;;;;;;;;;;;;;;;20.86;48.89;101269.00;2099020;28;1213;-36
2021/03/22 02:59:21;;;;;;;;;;;;;;;20.86;48.95;101268.19;2095268;28;2227;-34
2021/03/22 03:00:22;;;;;;;;;;;;;;;20.86;48.83;101274.69;2099498;28;1408;-35
2021/03/22 03:01:25;;;;;;;;;;;;;;;20.86;48.98;101266.16;2099105;28;1317;-37
2021/03/22 03:02:27;;;;;;;;;;;;;;;20.86;48.88;101269.00;2097432;28;1883;-36
2021/03/22 03:03:27;;;;;;;;;;;;;;;20.86;48.77;101271.03;2103320;28;1237;-35
2021/03/22 03:04:29;;;;;;;;;;;;;;;20.85;48.74;101273.03;2093379;28;1937;-34
2021/03/22 03:05:29;;;;;;;;;;;;;;;20.85;48.92;101275.88;2097518;28;1961;-35
2021/03/22 03:06:30;;;;;;;;;;;;;;;20.86;48.93;101273.88;2102413;28;1252;-34
2021/03/22 03:07:31;;;;;;;;;;;;;;;20.85;48.83;101270.19;2098619;28;1514;-33
2021/03/22 03:08:32;;;;;;;;;;;;;;;20.84;48.85;101268.53;2102683;28;1285;-37
2021/03/22 03:09:32;;;;;;;;;;;;;;;20.85;48.97;101272.22;2096987;28;3673;-34
2021/03/22 03:10:34;;;;;;;;;;;;;;;20.85;48.78;101273.03;2095543;28;1210;-36
2021/03/22 03:11:34;;;;;;;;;;;;;;;20.84;48.83;101271.38;2096587;28;1785;-35
2021/03/22 03:12:35;;;;;;;;;;;;;;;20.85;48.86;101269.38;2101349;28;1566;-35
2021/03/22 03:13:36;;;;;;;;;;;;;;;20.85;48.91;101278.72;2098533;28;1397;-36
2021/03/22 03:14:37;;;;;;;;;;;;;;;20.84;48.89;101277.06;2098501;28;1910;-33
2021/03/22 03:15:38;;;;;;;;;;;;;;;20.85;48.90;101280.75;2102186;28;1610;-34
2021/03/22 03:16:39;;;;;;;;;;;;;;;20.85;48.85;101280.75;2099302;28;1253;-35
2021/03/22 03:17:40;;;;;;;;;;;;;;;20.85;48.83;101277.91;2099769;28;1301;-32
2021/03/22 03:18:41;;;;;;;;;;;;;;;20.84;48.66;101282.75;2103775;28;1439;-34
2021/03/22 03:19:41;;;;;;;;;;;;;;;20.85;48.85;101277.91;2096066;28;1977;-36
2021/03/22 03:20:42;;;;;;;;;;;;;;;20.85;48.77;101278.72;2100327;28;1163;-32
2021/03/22 03:21:46;;;;;;;;;;;;;;;20.85;48.79;101283.59;2097563;28;1402;-32
2021/03/22 03:22:47;;;;;;;;;;;;;;;20.85;48.86;101289.28;2099445;28;1186;-32
2021/03/22 03:23:47;;;;;;;;;;;;;;;20.83;48.75;101295.28;2100743;28;1331;-35
2021/03/22 03:24:48;;;;;;;;;;;;;;;20.84;48.75;101291.28;2098186;28;1914;-40
2021/03/22 03:25:49;;;;;;;;;;;;;;;20.84;48.74;101296.97;2099536;28;1678;-33
2021/03/22 03:26:50;;;;;;;;;;;;;;;20.84;48.81;101294.13;2101130;28;1343;-35
2021/03/22 03:27:50;;;;;;;;;;;;;;;20.83;48.80;101292.44;2100571;28;1187;-37
2021/03/22 03:28:51;;;;;;;;;;;;;;;20.85;48.77;101300.66;2102769;28;1818;-39
2021/03/22 03:29:52;;;;;;;;;;;;;;;20.84;48.74;101299.81;2103287;28;1959;-37
2021/03/22 03:30:53;;;;;;;;;;;;;;;20.84;48.73;101296.97;2099821;28;1287;-34
2021/03/22 03:31:53;;;;;;;;;;;;;;;20.84;48.80;101304.66;2097153;28;1985;-38
2021/03/22 03:32:54;;;;;;;;;;;;;;;20.84;48.72;101298.97;2102536;28;1340;-34
2021/03/22 03:33:55;;;;;;;;;;;;;;;20.83;48.77;101298.13;2099828;28;1176;-37
2021/03/22 03:34:56;;;;;;;;;;;;;;;20.83;48.76;101300.97;2095480;28;2308;-36
2021/03/22 03:35:57;;;;;;;;;;;;;;;20.83;48.68;101298.13;2100375;28;1783;-37
2021/03/22 03:36:58;;;;;;;;;;;;;;;20.84;48.75;101302.66;2097709;28;1987;-33
2021/03/22 03:37:59;;;;;;;;;;;;;;;20.83;48.63;101295.28;2098458;28;1573;-36
2021/03/22 03:38:59;;;;;;;;;;;;;;;20.83;48.68;101298.13;2103954;28;1338;-36
2021/03/22 03:40:01;;;;;;;;;;;;;;;20.84;48.68;101304.66;2094658;28;1907;-37
2021/03/22 03:41:01;;;;;;;;;;;;;;;20.84;48.74;101301.81;2104249;28;1517;-34
2021/03/22 03:42:02;;;;;;;;;;;;;;;20.83;48.58;101300.97;2101594;28;1427;-38
2021/03/22 03:43:03;;;;;;;;;;;;;;;20.83;48.76;101300.97;2094928;28;1268;-37
2021/03/22 03:44:04;;;;;;;;;;;;;;;20.82;48.77;101293.63;2101418;28;1902;-37
2021/03/22 03:45:05;;;;;;;;;;;;;;;20.82;48.89;101296.47;2100980;28;2191;-35
2021/03/22 03:46:06;;;;;;;;;;;;;;;20.83;48.77;101297.31;2099632;28;1565;-37
2021/03/22 03:47:07;;;;;;;;;;;;;;;20.83;48.71;101303.81;2098507;28;1731;-33
2021/03/22 03:48:08;;;;;;;;;;;;;;;20.82;48.91;101296.47;2100282;28;1583;-35
2021/03/22 03:49:08;;;;;;;;;;;;;;;20.84;48.76;101304.66;2099821;28;1299;-38
2021/03/22 03:50:09;;;;;;;;;;;;;;;20.83;48.77;101306.66;2095058;28;2240;-35
2021/03/22 03:51:10;;;;;;;;;;;;;;;20.83;48.82;101308.69;2101738;28;1339;-34
2021/03/22 03:52:11;;;;;;;;;;;;;;;20.83;48.82;101309.50;2101353;28;1283;-39
2021/03/22 03:53:11;;;;;;;;;;;;;;;20.83;48.95;101309.50;2101564;28;1997;-33
2021/03/22 03:54:12;;;;;;;;;;;;;;;20.84;48.85;101316.88;2098843;28;1243;-33
2021/03/22 03:55:13;;;;;;;;;;;;;;;20.83;48.85;101315.19;2100088;28;1888;-35
2021/03/22 03:56:14;;;;;;;;;;;;;;;20.84;48.80;101313.19;2100550;28;1451;-32
2021/03/22 03:57:15;;;;;;;;;;;;;;;20.84;48.87;101313.19;2097859;28;1610;-36
2021/03/22 03:58:16;;;;;;;;;;;;;;;20.83;48.89;101315.19;2100999;28;1200;-34
2021/03/22 03:59:16;;;;;;;;;;;;;;;20.83;49.01;101320.88;2099065;28;1330;-35
2021/03/22 04:00:17;;;;;;;;;;;;;;;20.83;48.96;101320.88;2098862;28;1922;-37
2021/03/22 04:01:18;;;;;;;;;;;;;;;20.83;48.92;101318.03;2098223;28;1227;-33
2021/03/22 04:02:19;;;;;;;;;;;;;;;20.83;48.93;101312.34;2097457;28;1362;-36
2021/03/22 04:03:21;;;;;;;;;;;;;;;20.83;48.78;101315.19;2101276;28;1395;-36
2021/03/22 04:04:22;;;;;;;;;;;;;;;20.83;48.90;101318.03;2096835;28;1917;-35
2021/03/22 04:05:23;;;;;;;;;;;;;;;20.83;48.89;101315.19;2098400;28;2384;-32
2021/03/22 04:06:24;;;;;;;;;;;;;;;20.83;48.88;101320.88;2100207;28;1289;-33
2021/03/22 04:07:25;;;;;;;;;;;;;;;20.84;48.98;101316.88;2097184;28;1575;-40
2021/03/22 04:08:26;;;;;;;;;;;;;;;20.83;48.97;101309.50;2097766;28;2013;-32
2021/03/22 04:09:26;;;;;;;;;;;;;;;20.83;48.98;101311.53;2094856;28;3709;-37
2021/03/22 04:10:27;;;;;;;;;;;;;;;20.83;48.99;101318.03;2100076;28;1939;-32
2021/03/22 04:11:28;;;;;;;;;;;;;;;20.83;48.80;101314.38;2099238;28;2286;-39
2021/03/22 04:12:29;;;;;;;;;;;;;;;20.83;48.91;101320.06;2098644;28;1982;-34
2021/03/22 04:13:29;;;;;;;;;;;;;;;20.83;49.01;101326.56;2099674;28;1887;-35
2021/03/22 04:14:30;;;;;;;;;;;;;;;20.83;48.82;101332.25;2102123;28;1354;-36
2021/03/22 04:15:32;;;;;;;;;;;;;;;20.83;49.01;101325.75;2100349;28;2026;-36
2021/03/22 04:16:33;;;;;;;;;;;;;;;20.82;48.88;101330.59;2098988;28;2075;-34
2021/03/22 04:17:34;;;;;;;;;;;;;;;20.82;48.95;101327.75;2093815;28;1120;-35
2021/03/22 04:18:35;;;;;;;;;;;;;;;20.82;48.96;101327.75;2095684;28;1902;-36
2021/03/22 04:19:36;;;;;;;;;;;;;;;20.82;48.99;101318.41;2100210;28;1314;-37
2021/03/22 04:20:37;;;;;;;;;;;;;;;20.82;48.86;101324.91;2099532;28;2079;-36
2021/03/22 04:21:38;;;;;;;;;;;;;;;20.82;48.93;101330.59;2099233;28;1986;-34
2021/03/22 04:22:38;;;;;;;;;;;;;;;20.82;48.89;101327.75;2100487;28;1206;-35
2021/03/22 04:23:39;;;;;;;;;;;;;;;20.82;48.95;101329.78;2099549;28;1377;-37
2021/03/22 04:24:40;;;;;;;;;;;;;;;20.82;49.02;101329.78;2101211;28;1973;-37
2021/03/22 04:25:40;;;;;;;;;;;;;;;20.83;48.99;101339.97;2099374;28;2134;-35
2021/03/22 04:26:41;;;;;;;;;;;;;;;20.82;48.98;101333.44;2099830;28;1227;-35
2021/03/22 04:27:42;;;;;;;;;;;;;;;20.83;49.05;101337.13;2099710;28;2010;-35
2021/03/22 04:28:43;;;;;;;;;;;;;;;20.82;49.05;101332.63;2099508;28;1546;-37
2021/03/22 04:29:43;;;;;;;;;;;;;;;20.83;48.98;101331.44;2103338;28;1417;-38
2021/03/22 04:30:44;;;;;;;;;;;;;;;20.82;49.07;101333.44;2101820;28;1925;-36
2021/03/22 04:31:45;;;;;;;;;;;;;;;20.82;49.04;101330.59;2104114;28;1455;-34
2021/03/22 04:32:46;;;;;;;;;;;;;;;20.82;49.03;101344.81;2100883;28;1920;-33
2021/03/22 04:33:47;;;;;;;;;;;;;;;20.82;49.18;101339.13;2102570;28;1271;-35
2021/03/22 04:34:48;;;;;;;;;;;;;;;20.82;49.14;101335.47;2104604;28;1306;-35
2021/03/22 04:35:49;;;;;;;;;;;;;;;20.82;49.19;101341.16;2100186;28;2026;-37
2021/03/22 04:36:50;;;;;;;;;;;;;;;20.83;49.07;101337.13;2094534;28;1956;-36
2021/03/22 04:37:50;;;;;;;;;;;;;;;20.82;49.15;101339.13;2099861;28;2233;-36
2021/03/22 04:38:51;;;;;;;;;;;;;;;20.82;49.14;101333.44;2105186;28;1250;-37
2021/03/22 04:39:52;;;;;;;;;;;;;;;20.82;49.00;101335.47;2099967;28;1653;-38
2021/03/22 04:40:53;;;;;;;;;;;;;;;20.82;49.10;101346.84;2102086;28;1867;-32
2021/03/22 04:41:53;;;;;;;;;;;;;;;20.81;49.15;101343.13;2101163;28;1933;-37
2021/03/22 04:42:54;;;;;;;;;;;;;;;20.81;49.01;101351.66;2103959;28;1386;-33
2021/03/22 04:43:55;;;;;;;;;;;;;;;20.82;49.09;101344.00;2103228;28;1231;-33
2021/03/22 04:44:56;;;;;;;;;;;;;;;20.82;49.13;101346.84;2104792;28;1981;-33
2021/03/22 04:45:56;;;;;;;;;;;;;;;20.81;49.05;101348.81;2099164;28;1947;-35
2021/03/22 04:46:57;;;;;;;;;;;;;;;20.82;49.19;101349.69;2099695;28;1199;-35
2021/03/22 04:47:58;;;;;;;;;;;;;;;20.81;49.05;101345.97;2101566;28;1267;-35
2021/03/22 04:48:59;;;;;;;;;;;;;;;20.81;49.09;101351.66;2103140;28;1204;-37
2021/03/22 04:50:00;;;;;;;;;;;;;;;20.82;49.07;101347.66;2101662;28;1997;-31
2021/03/22 04:51:02;;;;;;;;;;;;;;;20.82;49.13;101355.38;2098537;28;1964;-37
2021/03/22 04:52:02;;;;;;;;;;;;;;;20.82;49.13;101346.84;2102802;28;1344;-35
2021/03/22 04:53:03;;;;;;;;;;;;;;;20.81;49.11;101351.66;2097235;28;1219;-36
2021/03/22 04:54:04;;;;;;;;;;;;;;;20.80;49.25;101347.16;2104138;28;1326;-38
2021/03/22 04:55:05;;;;;;;;;;;;;;;20.81;49.08;101351.66;2100638;28;1317;-33
2021/03/22 04:56:07;;;;;;;;;;;;;;;20.80;49.23;101344.31;2095288;28;1913;-38
2021/03/22 04:57:08;;;;;;;;;;;;;;;20.81;49.29;101348.81;2099576;28;1430;-34
2021/03/22 04:58:09;;;;;;;;;;;;;;;20.81;49.19;101348.81;2100529;28;1445;-31
2021/03/22 04:59:10;;;;;;;;;;;;;;;20.81;49.19;101345.97;2097845;28;1341;-34
2021/03/22 05:00:10;;;;;;;;;;;;;;;20.80;49.29;101352.84;2098978;28;1631;-32
2021/03/22 05:01:11;;;;;;;;;;;;;;;20.81;49.39;101354.50;2098403;28;2057;-33
2021/03/22 05:02:12;;;;;;;;;;;;;;;20.82;49.13;101355.38;2101922;28;1527;-36
2021/03/22 05:03:31;;;;;;;;;;;;;;;20.82;49.22;101363.91;2100461;28;1212;-37
2021/03/22 05:04:32;;;;;;;;;;;;;;;20.82;49.33;101363.91;2102961;28;1977;-35
2021/03/22 05:05:33;;;;;;;;;;;;;;;20.82;49.25;101364.75;2101210;28;1657;-35
2021/03/22 05:06:34;;;;;;;;;;;;;;;20.82;49.31;101363.91;2096952;28;1954;-33
2021/03/22 05:07:34;;;;;;;;;;;;;;;20.82;49.16;101363.91;2099899;28;1348;-35
2021/03/22 05:08:35;;;;;;;;;;;;;;;20.82;49.22;101363.91;2101773;28;1254;-36
2021/03/22 05:09:36;;;;;;;;;;;;;;;20.81;49.32;101360.19;2098950;28;3797;-34
2021/03/22 05:10:36;;;;;;;;;;;;;;;20.81;49.24;101365.88;2100777;28;1541;-36
2021/03/22 05:11:37;;;;;;;;;;;;;;;20.81;49.39;101365.88;2096047;28;1911;-37
2021/03/22 05:12:38;;;;;;;;;;;;;;;20.81;49.28;101373.59;2100908;28;1633;-35
2021/03/22 05:13:39;;;;;;;;;;;;;;;20.82;49.34;101367.56;2098605;28;1505;-34
2021/03/22 05:14:39;;;;;;;;;;;;;;;20.82;49.30;101366.75;2102853;28;1104;-35
2021/03/22 05:15:40;;;;;;;;;;;;;;;20.82;49.43;101376.13;2103461;28;1319;-36
2021/03/22 05:16:41;;;;;;;;;;;;;;;20.82;49.34;101364.75;2101246;28;1881;-34
2021/03/22 05:17:53;;;;;;;;;;;;;;;20.82;49.50;101375.28;2100275;28;1175;-34